NCAR-RAP Real-Time Weather Data

Output produced by METARs form (23 June 2018  15:28 UTC)
found at http://weather.rap.ucar.edu/surface/
 
RJAH 231500Z 23003KT 2000 BR MIFG FEW003 SCT006 BKN/// 17/16 Q1004
RJAH 231445Z 22003KT 2000 BR MIFG FEW003 SCT006 BKN/// 17/16 Q1004 RMK 2ST003 3ST006 A2965 VIS E-SW 1600M
RJAH 231428Z VRB02KT 2500 BR FEW003 SCT008 BKN/// 17/17 Q1003 RMK 2ST003 3ST008 A2964 VIS E-SW 1800M
RJAH 231400Z 19003KT 3000 BR FEW003 BKN120 BKN/// 17/17 Q1003
RJAH 231334Z 20005KT 3000 BR FEW003 BKN120 BKN/// 17/16 Q1003 RMK 1ST003 5AC120 A2962 VIS E-SW 2000M
RJAH 231300Z 24005KT 4000 BR FEW003 SCT100 BKN/// 17/17 Q1003
RJAH 231200Z 28003KT 6000 FEW006 SCT060 BKN100 17/17 Q1003
RJAH 231146Z 29004KT 6000 FEW010 BKN060 BKN100 17/17 Q1003 RMK 1ST010 5SC060 6AC100 A2963 VIS SE-SW 4000M
RJAH 231100Z 01003KT 6000 FEW010 BKN015 OVC060 18/17 Q1003
RJAH 231035Z 03004KT 5000 -RA BR FEW010 BKN015 OVC060 18/17 Q1003 RMK 1ST010 5SC015 8SC060 A2962
RJAH 231000Z 03008KT 3500 -RA BR FEW008 BKN012 OVC050 18/17 Q1003
RJAH 230923Z 36006KT 3000 RA BR FEW008 BKN012 OVC050 18/17 Q1003 RMK 2ST008 6SC012 8SC050 A2964 VIS SW-W 2500M
RJAH 230914Z VRB04KT 3500 RA BR FEW008 BKN012 OVC050 19/18 Q1003 RMK 2ST008 5SC012 8SC050 A2964 VIS SW-NW 3000M
RJAH 230900Z 16004KT 4000 -RA BR FEW008 SCT012 BKN050 20/19 Q1003
RJAH 230819Z 04005KT 4000 RA BR FEW008 BKN012 BKN050 20/16 Q1003 RMK 1ST008 5SC012 5SC050 A2964
RJAH 230800Z 31005KT 280V350 4000 -RA BR FEW008 BKN012 OVC080 21/14 Q1004
RJAH 230729Z 28001KT 4000 -RA BR FEW008 BKN015 OVC080 22/20 Q1004 RMK 1ST008 5SC015 8AS080 A2966 VIS SW 3000M FCST AMD 0713 BECMG 0707 5000 BR FEW008ST BKN012SC BKN060SC TEMPO 0708 3000 -RA BR SCT008ST BKN010ST TEMPO 0811 2500 RA BR SCT004ST BKN006ST BECM
RJAH 230700Z 29003KT 5000 -RA BR FEW008 SCT015 OVC080 22/20 Q1004
RJAH 230600Z 23007KT 6000 -RA FEW008 SCT012 OVC100 23/18 Q1005
RJAH 230500Z 21008KT 6000 -RA FEW008 SCT012 OVC120 23/19 Q1005
RJAH 230451Z 21008KT 6000 -RA FEW008 SCT012 OVC120 23/18 Q1005 RMK 1ST008 3SC012 8AS120 A2970
RJAH 230400Z 15006KT 6000 FEW008 SCT012 BKN150 22/18 Q1004
RJAH 230345Z 16006KT 130V200 6000 FEW008 SCT012 BKN150 22/18 Q1005 RMK 1ST008 3CU012 7AC150 A2969 P/FR
RJAH 230300Z 19005KT 160V240 5000 BR FEW008 BKN012 BKN150 22/19 Q1007
RJAH 230200Z 13004KT 090V160 5000 BR FEW008 BKN010 BKN180 22/18 Q1007
RJAH 230100Z VRB03KT 5000 BR FEW008 BKN010 BKN180 22/18 Q1008
RJAH 230029Z 04003KT 350V090 6000 FEW008 BKN010 BKN180 22/18 Q1008 RMK 2ST008 5ST010 7AC180 A2978 VIS SE-S 5KM
RJAH 230000Z 08003KT 060V170 7000 FEW006 BKN008 22/18 Q1008
RJAH 222351Z 09003KT 040V170 7000 FEW006 BKN008 BKN180 22/18 Q1008 RMK 2ST006 6ST008 6AC180 A2978 VIS SE-S 5KM
RJAH 222340Z 07003KT 030V130 8000 FEW008 BKN010 BKN180 22/18 Q1008 RMK 2ST008 5ST010 5AC180 A2979
RJAH 222300Z 04003KT 360V090 9999 FEW030 BKN230 22/17 Q1009
RJAH 222200Z 01004KT 9999 FEW030 BKN250 20/17 Q1009
RJAH 222100Z 01005KT 9999 FEW006 BKN250 18/17 Q1008
RJAH 222040Z 01004KT 9999 SCT006 BKN250 18/16 Q1009 RMK 3ST006 A2980
RJAH 222000Z 02002KT 9999 FEW005 BKN006 BKN250 17/16 Q1009
RJAH 221948Z 02002KT 9999 FEW005 BKN006 BKN250 17/16 Q1009 RMK 1ST005 5ST006 A2980
RJAH 221900Z 36003KT 340V040 9999 SCT006 BKN/// 17/16 Q1009
RJAH 221800Z 02002KT 9999 FEW020 BKN/// 17/16 Q1009
RJAH 221700Z 36003KT 9999 FEW020 BKN/// 17/17 Q1008
RJAH 221600Z 02005KT 9999 FEW020 BKN/// 17/16 Q1009
RJAH 221500Z 05004KT 9999 FEW020 BKN/// 18/16 Q1009
RJAH 221400Z 03002KT 9999 FEW020 SCT/// 19/16 Q1009
RJAH 221300Z 03004KT 9999 FEW020 19/16 Q1009
RJAH 221200Z 05003KT 9999 FEW020 SCT/// 19/16 Q1009
RJAH 221100Z VRB02KT 9999 FEW030 SCT/// 21/16 Q1008
RJAH 221000Z 17005KT 140V200 9999 FEW030 SCT250 23/16 Q1008
RJAH 220900Z 18009KT 9999 FEW030 BKN250 24/16 Q1007
RJAH 220800Z 17010KT 140V210 9999 FEW030 BKN250 25/15 Q1007
RJAH 220700Z 17011KT 9999 FEW030 BKN250 26/14 Q1007
RJAH 220600Z 17013KT 140V200 9999 FEW030 BKN250 26/14 Q1007
RJAH 220500Z 16011KT 140V200 9999 FEW030 BKN250 27/16 Q1006
RJAH 220400Z 17009KT 140V200 9999 FEW030 BKN250 27/16 Q1007
RJAH 220300Z 16009KT 120V190 9999 FEW030 BKN250 26/18 Q1007
RJAH 220200Z 06003KT 360V120 9999 FEW030 BKN250 26/15 Q1007
RJAH 220100Z VRB02KT 9999 FEW030 SCT050 BKN250 25/14 Q1007
RJAH 220000Z VRB02KT 9999 FEW025 BKN250 24/14 Q1007
RJAH 212300Z 05003KT 360V110 9999 FEW025 BKN250 24/14 Q1007
RJAH 212200Z 04004KT 9999 FEW020 BKN250 21/18 Q1007
RJAH 212115Z VRB02KT 9999 FEW020 BKN250 19/19 Q1007 RMK 1CU020 A2975
RJAH 212100Z VRB01KT 6000 FEW020 BKN250 19/18 Q1007
RJAH 212049Z VRB01KT 5000 BR FEW020 BKN250 19/18 Q1007 RMK 1CU020 A2975 VIS SW-W 8KM
RJAH 212035Z VRB01KT 2400 BR FEW001 BKN250 18/17 Q1007 RMK 2ST001 A2974 VIS SE-W 5KM
RJAH 212020Z VRB02KT 1400 R03/0800V1800U BR MIFG FEW000 SCT001 BKN250 17/17 Q1006 RMK 1ST000 3ST001 A2973 R1200 VIS SE-SW 2500M
RJAH 212000Z 00000KT 0700 R03/0400V0900N FG FEW000 SCT001 17/16 Q1006
RJAH 211936Z 00000KT 0600 R03/0600N FG FEW000 SCT001 17/17 Q1006 RMK 1ST000 3ST001 A2972
RJAH 211900Z 00000KT 0600 R03/0300V0800D FG FEW000 BKN001 17/17 Q1006
RJAH 211817Z 00000KT 0600 R03/0500V1100N FG SCT000 BKN001 17/17 Q1005 RMK 3ST000 6ST001 A2969 R0700 VIS SW-W 1200M
RJAH 211800Z 01003KT 0300 R03/0250V0700N FG SCT000 BKN001 17/17 Q1005
RJAH 211700Z VRB02KT 0300 R03/0250V0600D FG SCT000 BKN001 17/17 Q1004
RJAH 211609Z VRB01KT 0400 R03/0350V1000D FG SCT000 BKN001 18/17 Q1004 RMK 4ST000 7ST001 A2967 R0700
RJAH 211600Z 00000KT 0600 R03/0400V1100D FG SCT000 BKN001 18/18 Q1004
RJAH 211545Z VRB01KT 0800 R03/0600V1500D FG SCT000 BKN001 18/17 Q1004 RMK 3ST000 5ST001 A2966 R1100 VIS W-N 400M
RJAH 211541Z VRB01KT 1000 R03/0800V1800D PRFG BR MIFG FEW000 SCT001 18/17 Q1004 RMK 2ST000 4ST001 A2967 R1400 FG BANK 600M W-N FCST AMD 1521 TEMPO 1521 0500 FG VV001
RJAH 211531Z 00000KT 1500 R03/1000VP1800D PRFG BR MIFG FEW000 SCT001 18/17 Q1004 RMK 2ST000 4ST001 A2967 R1800 FG BANK 800M W-N
RJAH 211527Z 00000KT 2000 PRFG BR MIFG FEW000 SCT001 18/17 Q1004 RMK 2ST000 3ST001 A2967 FG BANK 1000M W-N
RJAH 211500Z 21001KT 3000 BR MIFG FEW001 18/18 Q1004
RJAH 211400Z 00000KT 4000 BR FEW015 SCT/// 19/19 Q1004
RJAH 211349Z VRB01KT 4000 BR FEW015 SCT/// 20/19 Q1004 RMK 1CU015 A2965 VIS N-NE 3000M
RJAH 211300Z 00000KT 5000 BR FEW015 BKN/// 19/19 Q1004
RJAH 211200Z 01003KT 7000 FEW015 BKN/// 20/19 Q1004
RJAH 211145Z 36003KT 7000 FEW015 SCT030 BKN/// 20/19 Q1004 RMK 1CU015 3CU030 A2965
RJAH 211129Z 17003KT 7000 FEW015 BKN030 21/19 Q1003 RMK 1CU015 5CU030 A2964
RJAH 211100Z 16003KT 7000 FEW015 BKN025 21/20 Q1003
RJAH 211036Z 15002KT 7000 FEW012 BKN020 21/20 Q1003 RMK 1CU012 7SC020 A2963
RJAH 211000Z VRB02KT 8000 FEW012 BKN020 21/20 Q1003
RJAH 210900Z 17003KT 140V200 8000 FEW012 BKN015 BKN040 22/19 Q1002
RJAH 210800Z 16005KT 100V190 8000 FEW010 BKN012 BKN035 22/19 Q1002
RJAH 210745Z 16005KT 100V190 8000 FEW010 BKN012 BKN035 22/19 Q1002 RMK 2ST010 5CU012 6SC035 A2960
RJAH 210700Z 15005KT 9999 FEW010 BKN040 BKN200 23/20 Q1002
RJAH 210600Z 17005KT 150V220 9999 FEW015 SCT020 BKN040 23/20 Q1002
RJAH 210500Z 17005KT 140V210 9999 FEW015 BKN050 BKN200 23/19 Q1002
RJAH 210436Z 16004KT 100V230 9999 FEW012 SCT015 BKN050 22/19 Q1002 RMK 1CU012 3CU015 7SC050 A2959
RJAH 210400Z 17006KT 140V200 9999 FEW012 BKN015 BKN060 22/19 Q1002